Otumpa, Argentina
Current Conditions -  °F | °C
As of 12:00 PM on Saturday 25 Oct 2014 (Local Time) from SANT Reporting Station
Clear Clear  
Wind Chill: 95°   Ceiling: Unl
Heat Index: 95°   Visibility: 4mi
Dew Point: 59°   Wind: 5mph
Humidity: 30%   Direction: 140°SE
Pressure: 29.88"   Gusts: NA
Location:  27.32°S, 62.22°W
Report Text: SANT 251500Z 14004KT 7000 NSC 35/15 Q1012
Loading
Personal Weather Stations






























Interactive Weather Map
Tropical Storm Tracking
New forecast layout! Learn more

10-Day Weather Forecast

Advertisements
Track Severe Weather on mobile